Time;durP1;ratioP1;P1;durP2;ratioP2;P2;SDS_P1;SDS_P2;PMS_P1;PMS_P2;Temp;Humidity;BMP_temperature;BMP_pressure;BME280_temperature;BME280_humidity;BME280_pressure;Samples;Min_cycle;Max_cycle;Signal;HPM_P1;HPM_P2
2022/08/30 00:01:31;;;;;;;5.75;2.53;;;16.20;99.90;;;;;;5076221;28;20040;-66
2022/08/30 00:03:57;;;;;;;3.22;1.90;;;16.20;99.90;;;;;;5076708;28;20116;-66
2022/08/30 00:06:25;;;;;;;5.05;2.20;;;16.20;99.90;;;;;;5075321;28;20138;-66
2022/08/30 00:08:51;;;;;;;3.90;1.90;;;16.20;99.90;;;;;;5076576;28;20115;-66
2022/08/30 00:11:22;;;;;;;4.03;2.83;;;16.20;99.90;;;;;;5076649;28;20036;-66
2022/08/30 00:13:50;;;;;;;4.95;2.83;;;16.10;99.90;;;;;;5076318;28;20041;-66
2022/08/30 00:16:16;;;;;;;6.10;1.98;;;16.10;99.90;;;;;;5076256;28;20403;-67
2022/08/30 00:18:42;;;;;;;6.22;2.70;;;16.10;99.90;;;;;;5075455;28;20439;-66
2022/08/30 00:21:08;;;;;;;3.88;2.75;;;16.20;99.90;;;;;;5076329;28;20114;-66
2022/08/30 00:23:34;;;;;;;3.95;2.67;;;15.90;99.90;;;;;;5075975;28;20047;-66
2022/08/30 00:26:01;;;;;;;2.85;2.30;;;16.00;99.90;;;;;;5075986;28;20040;-66
2022/08/30 00:28:27;;;;;;;8.57;2.55;;;16.00;99.90;;;;;;5075991;28;20040;-67
2022/08/30 00:30:53;;;;;;;5.85;2.50;;;15.90;99.90;;;;;;5076047;28;20036;-66
2022/08/30 00:33:19;;;;;;;4.30;2.95;;;15.90;99.90;;;;;;5076140;28;20043;-66
2022/08/30 00:35:45;;;;;;;5.10;2.63;;;15.80;99.90;;;;;;5075922;28;20123;-66
2022/08/30 00:38:14;;;;;;;2.78;2.47;;;15.80;99.90;;;;;;5075648;28;20068;-66
2022/08/30 00:40:43;;;;;;;5.90;2.75;;;15.80;99.90;;;;;;5075887;28;20064;-67
2022/08/30 00:43:15;;;;;;;4.82;2.80;;;15.80;99.90;;;;;;5075506;28;20044;-67
2022/08/30 00:45:41;;;;;;;3.72;2.30;;;15.70;99.90;;;;;;5075417;28;20036;-67
2022/08/30 00:48:06;;;;;;;4.22;2.38;;;15.60;99.90;;;;;;5074007;28;20094;-67
2022/08/30 00:50:36;;;;;;;3.65;2.35;;;15.60;99.90;;;;;;5075927;28;20054;-67
2022/08/30 00:53:05;;;;;;;4.90;2.47;;;15.60;99.90;;;;;;5075166;28;20057;-66
2022/08/30 00:55:32;;;;;;;6.15;2.30;;;15.50;99.90;;;;;;5075263;28;20048;-67
2022/08/30 00:58:00;;;;;;;6.68;2.80;;;15.50;99.90;;;;;;5075569;28;20040;-67
2022/08/30 01:00:26;;;;;;;;;;;15.50;99.90;;;;;;5075456;28;20029;-67
2022/08/30 01:02:52;;;;;;;3.88;2.10;;;15.50;99.90;;;;;;5075553;28;19928;-67
2022/08/30 01:05:18;;;;;;;3.20;2.13;;;15.50;99.90;;;;;;5075466;28;20467;-67
2022/08/30 01:07:44;;;;;;;4.68;2.55;;;15.40;99.90;;;;;;5074783;28;20115;-67
2022/08/30 01:10:12;;;;;;;5.25;2.47;;;15.40;99.90;;;;;;5075379;28;20067;-67
2022/08/30 01:12:40;;;;;;;5.30;1.90;;;15.40;99.90;;;;;;5073283;28;20051;-66
2022/08/30 01:15:07;;;;;;;4.22;1.85;;;15.40;99.90;;;;;;5075341;28;20037;-67
2022/08/30 01:17:33;;;;;;;3.45;2.22;;;15.40;99.90;;;;;;5075139;28;20044;-65
2022/08/30 01:20:00;;;;;;;3.83;1.83;;;15.40;99.90;;;;;;5075244;28;20055;-66
2022/08/30 01:22:33;;;;;;;5.38;2.17;;;15.40;99.90;;;;;;5074505;28;20483;-66
2022/08/30 01:25:00;;;;;;;2.72;1.92;;;15.40;99.90;;;;;;5074883;28;20043;-66
2022/08/30 01:27:27;;;;;;;6.38;2.15;;;15.40;99.90;;;;;;5074977;28;20062;-66
2022/08/30 01:29:54;;;;;;;6.97;2.35;;;15.40;99.90;;;;;;5075026;28;20081;-66
2022/08/30 01:32:27;;;;;;;6.72;2.05;;;15.30;99.90;;;;;;5074843;28;20111;-66
2022/08/30 01:34:54;;;;;;;4.65;2.00;;;15.40;99.90;;;;;;5074702;28;20048;-66
2022/08/30 01:37:29;;;;;;;4.18;2.15;;;15.50;99.90;;;;;;5073357;28;20161;-68
2022/08/30 01:39:55;;;;;;;3.45;2.35;;;15.50;99.90;;;;;;5073826;28;20044;-66
2022/08/30 01:42:21;;;;;;;3.90;2.08;;;15.50;99.90;;;;;;5074591;28;20047;-65
2022/08/30 01:44:47;;;;;;;4.68;2.20;;;15.60;99.90;;;;;;5074875;28;20032;-66
2022/08/30 01:47:14;;;;;;;4.28;1.90;;;15.70;99.90;;;;;;5074382;28;20482;-66
2022/08/30 01:49:40;;;;;;;5.40;2.72;;;15.70;99.90;;;;;;5074230;28;20036;-65
2022/08/30 01:52:07;;;;;;;4.90;2.53;;;15.70;99.90;;;;;;5074095;28;20062;-66
2022/08/30 01:54:34;;;;;;;3.88;2.50;;;15.70;99.90;;;;;;5074465;28;20382;-66
2022/08/30 01:57:00;;;;;;;7.93;2.65;;;15.80;99.90;;;;;;5074607;28;20044;-66
2022/08/30 01:59:26;;;;;;;5.07;2.47;;;15.80;99.90;;;;;;5074578;28;20112;-66
2022/08/30 02:01:53;;;;;;;5.45;2.40;;;15.80;99.90;;;;;;5074098;28;20037;-66
2022/08/30 02:04:18;;;;;;;3.70;2.22;;;15.80;99.90;;;;;;5074246;28;20040;-67
2022/08/30 02:06:45;;;;;;;4.57;2.22;;;15.80;99.90;;;;;;5074354;28;20039;-66
2022/08/30 02:09:11;;;;;;;5.20;2.83;;;15.80;99.90;;;;;;5072943;28;20045;-66
2022/08/30 02:11:38;;;;;;;4.90;2.50;;;15.80;99.90;;;;;;5074416;28;20043;-66
2022/08/30 02:14:04;;;;;;;6.38;3.45;;;15.90;99.90;;;;;;5073758;28;20075;-67
2022/08/30 02:16:30;;;;;;;7.05;2.63;;;15.90;99.90;;;;;;5073933;28;20058;-66
2022/08/30 02:18:56;;;;;;;2.50;2.13;;;15.80;99.90;;;;;;5073898;28;20048;-66
2022/08/30 02:21:23;;;;;;;3.90;2.75;;;15.80;99.90;;;;;;5073518;28;20036;-66
2022/08/30 02:23:50;;;;;;;4.35;2.80;;;15.80;99.90;;;;;;5074235;28;20142;-67
2022/08/30 02:26:16;;;;;;;7.85;3.30;;;15.70;99.90;;;;;;5073223;28;20372;-66
2022/08/30 02:28:43;;;;;;;3.53;2.58;;;15.80;99.90;;;;;;5073123;28;20036;-66
2022/08/30 02:31:09;;;;;;;5.20;2.65;;;15.80;99.90;;;;;;5072014;28;20033;-66
2022/08/30 02:33:35;;;;;;;4.68;2.35;;;15.70;99.90;;;;;;5072228;28;20037;-66
2022/08/30 02:36:01;;;;;;;3.50;2.58;;;15.70;99.90;;;;;;5072558;28;20047;-66
2022/08/30 06:00:43;;;;;;;4.95;2.60;;;15.50;99.90;;;;;;5052349;28;20163;-65
2022/08/30 06:03:11;;;;;;;4.78;2.58;;;15.60;99.90;;;;;;5053134;28;20068;-65
2022/08/30 06:05:36;;;;;;;10.80;2.55;;;15.70;99.90;;;;;;5054015;28;20037;-65
2022/08/30 06:08:03;;;;;;;3.97;2.40;;;15.80;99.90;;;;;;5054014;28;20478;-65
2022/08/30 06:10:28;;;;;;;4.88;2.70;;;15.90;99.90;;;;;;5054053;28;20041;-64
2022/08/30 06:12:54;;;;;;;6.32;2.75;;;16.00;99.90;;;;;;5054430;28;20040;-65
2022/08/30 06:15:19;;;;;;;4.18;2.25;;;16.10;99.90;;;;;;5053437;28;20072;-65
2022/08/30 06:17:46;;;;;;;6.65;2.85;;;16.20;99.90;;;;;;5035017;28;20036;-65
2022/08/30 06:20:12;;;;;;;10.57;2.75;;;16.30;99.90;;;;;;5053662;28;20041;-57
2022/08/30 06:22:38;;;;;;;5.05;2.45;;;16.30;99.90;;;;;;5042039;28;20040;-64
2022/08/30 06:25:04;;;;;;;3.75;1.73;;;16.50;99.90;;;;;;5073998;28;20531;-64
2022/08/30 06:27:30;;;;;;;4.57;1.88;;;16.70;99.90;;;;;;5053259;28;20044;-65
2022/08/30 06:29:56;;;;;;;6.22;2.00;;;16.80;99.90;;;;;;5053228;28;20864;-64
2022/08/30 06:32:22;;;;;;;6.90;2.17;;;16.90;99.90;;;;;;5050652;28;20040;-64
2022/08/30 06:34:47;;;;;;;6.57;2.17;;;17.10;99.90;;;;;;5053239;28;20084;-64
2022/08/30 06:37:14;;;;;;;6.00;2.17;;;17.30;99.90;;;;;;5052697;28;20527;-63
2022/08/30 06:39:39;;;;;;;8.70;2.03;;;17.40;99.90;;;;;;5053793;28;20048;-63
2022/08/30 06:42:05;;;;;;;6.13;2.45;;;17.60;99.90;;;;;;5053879;28;20490;-63
2022/08/30 06:44:30;;;;;;;6.07;2.17;;;17.90;99.90;;;;;;5063175;28;20056;-63
2022/08/30 06:46:57;;;;;;;6.38;1.88;;;18.10;99.90;;;;;;5066628;28;20550;-63
2022/08/30 06:49:22;;;;;;;8.57;2.08;;;18.20;99.90;;;;;;5032657;28;20048;-60
2022/08/30 06:51:48;;;;;;;4.50;1.67;;;18.60;99.90;;;;;;5062135;28;20411;-59
2022/08/30 06:54:14;;;;;;;5.90;2.08;;;18.90;99.90;;;;;;5068320;28;20040;-56
2022/08/30 06:56:40;;;;;;;6.78;2.05;;;19.80;99.90;;;;;;5057748;28;20044;-55
2022/08/30 06:59:05;;;;;;;2.28;1.30;;;20.30;99.90;;;;;;5052584;28;20041;-56
2022/08/30 07:01:31;;;;;;;4.15;1.65;;;20.90;99.90;;;;;;5052154;28;20088;-56
2022/08/30 07:03:57;;;;;;;5.35;1.25;;;20.90;99.90;;;;;;5053091;28;20045;-56
2022/08/30 07:06:26;;;;;;;6.10;1.80;;;20.80;99.90;;;;;;5059294;28;20094;-56
2022/08/30 07:08:51;;;;;;;;;;;21.60;99.90;;;;;;5073646;28;20053;-56
2022/08/30 07:11:28;;;;;;;7.80;1.15;;;21.80;99.90;;;;;;5075253;28;19924;-55
2022/08/30 07:13:53;;;;;;;2.58;1.20;;;22.10;99.90;;;;;;5070339;28;20131;-56
2022/08/30 07:16:19;;;;;;;2.20;1.58;;;22.70;99.90;;;;;;5068300;28;20131;-60
2022/08/30 07:18:53;;;;;;;4.68;1.38;;;23.30;99.90;;;;;;5077191;28;20040;-60
2022/08/30 07:21:23;;;;;;;4.55;1.13;;;23.10;99.90;;;;;;5076939;28;20393;-60
2022/08/30 07:23:49;;;;;;;3.38;1.10;;;23.50;99.90;;;;;;5077074;28;20098;-59
2022/08/30 07:26:19;;;;;;;3.97;1.48;;;24.00;99.90;;;;;;5042451;28;20441;-61
2022/08/30 07:28:46;;;;;;;6.30;1.17;;;24.20;99.90;;;;;;5076929;28;20045;-60
2022/08/30 07:31:12;;;;;;;1.77;1.20;;;24.90;99.90;;;;;;5076573;28;20475;-60
2022/08/30 07:33:39;;;;;;;3.78;1.30;;;25.40;99.90;;;;;;5058600;28;20094;-60
2022/08/30 07:36:06;;;;;;;7.35;1.73;;;25.00;99.70;;;;;;5076845;28;20119;-59
2022/08/30 07:38:32;;;;;;;3.65;1.30;;;24.90;99.90;;;;;;5076872;28;20087;-60
2022/08/30 07:41:00;;;;;;;2.17;1.00;;;25.60;99.90;;;;;;5076724;28;20044;-60
2022/08/30 07:43:27;;;;;;;3.38;1.38;;;26.20;99.10;;;;;;5076649;28;20518;-60
2022/08/30 07:45:53;;;;;;;3.78;1.40;;;26.60;99.40;;;;;;5058795;28;20047;-61
2022/08/30 07:48:18;;;;;;;2.72;1.30;;;26.90;97.40;;;;;;5058661;28;20070;-61
2022/08/30 07:50:45;;;;;;;3.63;1.27;;;27.30;98.10;;;;;;5076785;28;20398;-61
2022/08/30 07:53:11;;;;;;;2.25;1.25;;;27.20;97.60;;;;;;5076416;28;20051;-61
2022/08/30 07:55:38;;;;;;;3.95;1.30;;;26.60;96.40;;;;;;5076348;28;20483;-61
2022/08/30 07:58:03;;;;;;;2.65;1.13;;;26.60;96.50;;;;;;5076409;28;20094;-61
2022/08/30 08:00:29;;;;;;;3.85;0.90;;;27.10;97.20;;;;;;5054487;28;20045;-61
2022/08/30 08:02:55;;;;;;;3.03;1.05;;;27.70;96.90;;;;;;5056598;28;20067;-60
2022/08/30 08:05:21;;;;;;;3.67;1.20;;;28.30;96.60;;;;;;5056254;28;20091;-60
2022/08/30 08:07:46;;;;;;;2.42;0.98;;;28.80;95.80;;;;;;5056184;28;20041;-60
2022/08/30 08:10:13;;;;;;;2.72;1.00;;;28.80;95.20;;;;;;5055987;28;20084;-61
2022/08/30 08:12:39;;;;;;;2.85;1.10;;;28.80;95.00;;;;;;5055548;28;20040;-60
2022/08/30 08:15:06;;;;;;;1.67;1.20;;;28.80;95.50;;;;;;5056080;28;20048;-61
2022/08/30 08:17:32;;;;;;;5.18;1.23;;;28.60;94.90;;;;;;5038055;28;20132;-60
2022/08/30 08:19:57;;;;;;;2.55;1.00;;;27.50;95.50;;;;;;5038146;28;20124;-60
2022/08/30 08:22:23;;;;;;;2.65;1.30;;;27.60;95.20;;;;;;5038039;28;20052;-61
2022/08/30 08:24:49;;;;;;;2.35;0.98;;;27.80;95.40;;;;;;5055819;28;20068;-60
2022/08/30 08:27:15;;;;;;;3.00;0.98;;;27.50;95.30;;;;;;5055685;28;20051;-60
2022/08/30 08:29:41;;;;;;;3.53;1.23;;;28.10;95.10;;;;;;5055820;28;20076;-60
2022/08/30 08:32:06;;;;;;;2.20;1.10;;;28.30;94.60;;;;;;5055921;28;20108;-61
2022/08/30 08:34:33;;;;;;;2.20;1.20;;;29.20;94.30;;;;;;5038030;28;20111;-61
2022/08/30 08:36:59;;;;;;;1.58;0.82;;;29.80;93.60;;;;;;5055532;28;20124;-61
2022/08/30 08:39:24;;;;;;;2.22;1.05;;;29.80;93.40;;;;;;5055609;28;20079;-60
2022/08/30 08:42:18;;;;;;;4.13;1.20;;;30.10;92.50;;;;;;5055415;28;20076;-61
2022/08/30 08:45:04;;;;;;;5.25;1.05;;;31.10;92.80;;;;;;5055226;28;20052;-61
2022/08/30 08:48:00;;;;;;;5.07;1.27;;;31.20;92.10;;;;;;5055432;28;20049;-61
2022/08/30 08:50:26;;;;;;;2.67;0.90;;;30.50;91.70;;;;;;5055455;28;20044;-62
2022/08/30 08:55:48;;;;;;;2.50;0.90;;;29.90;92.30;;;;;;5047047;28;20483;-61
2022/08/30 08:58:26;;;;;;;3.95;1.00;;;29.80;92.10;;;;;;5036657;28;20045;-60
2022/08/30 09:00:53;;;;;;;5.27;1.20;;;28.90;92.40;;;;;;5055218;28;20439;-61
2022/08/30 09:03:21;;;;;;;2.65;1.20;;;28.60;92.30;;;;;;5055147;28;20372;-60
2022/08/30 09:05:47;;;;;;;2.15;1.00;;;29.50;92.90;;;;;;5055004;28;20499;-62
2022/08/30 09:08:16;;;;;;;5.32;1.27;;;29.90;93.10;;;;;;5055112;28;20041;-62
2022/08/30 09:10:57;;;;;;;4.18;1.00;;;29.40;92.60;;;;;;5036547;28;20128;-61
2022/08/30 09:13:25;;;;;;;7.13;1.77;;;28.50;91.80;;;;;;5036522;28;20048;-60
2022/08/30 09:15:52;;;;;;;3.50;0.77;;;27.40;93.30;;;;;;5055001;28;20048;-61
2022/08/30 09:18:18;;;;;;;4.45;1.50;;;28.50;93.30;;;;;;5054989;28;20115;-62
2022/08/30 09:20:47;;;;;;;2.40;0.93;;;29.10;92.90;;;;;;5054840;28;20069;-61
2022/08/30 09:23:13;;;;;;;4.40;1.10;;;28.80;92.50;;;;;;5054526;28;20049;-60
2022/08/30 09:25:50;;;;;;;1.65;0.90;;;29.30;92.70;;;;;;5054793;28;20053;-61
2022/08/30 09:28:22;;;;;;;1.02;0.73;;;29.60;92.60;;;;;;5054526;28;20056;-60
2022/08/30 09:31:06;;;;;;;2.85;1.20;;;30.40;91.50;;;;;;5036766;28;20045;-61
2022/08/30 09:33:32;;;;;;;4.65;1.10;;;30.50;91.20;;;;;;5054020;28;20127;-61
2022/08/30 09:36:12;;;;;;;2.78;1.10;;;30.40;91.10;;;;;;5054252;28;20045;-61
2022/08/30 09:38:38;;;;;;;2.10;1.00;;;30.40;91.40;;;;;;5054530;28;20049;-61
2022/08/30 09:41:38;;;;;;;5.30;1.05;;;30.50;91.20;;;;;;5054254;28;20044;-61
2022/08/30 09:44:16;;;;;;;2.70;1.13;;;31.00;90.70;;;;;;5054416;28;20049;-61
2022/08/30 09:46:57;;;;;;;6.70;1.30;;;31.10;90.40;;;;;;5054297;28;20056;-61
2022/08/30 09:49:36;;;;;;;1.40;1.02;;;30.40;90.70;;;;;;5036752;28;20057;-61
2022/08/30 09:52:23;;;;;;;3.53;0.93;;;29.50;90.40;;;;;;5054223;28;20049;-61
2022/08/30 09:54:52;;;;;;;2.03;0.95;;;28.70;91.40;;;;;;5054655;28;20049;-61
2022/08/30 09:57:31;;;;;;;1.52;0.88;;;29.30;91.70;;;;;;5054442;28;20067;-61
2022/08/30 10:00:00;;;;;;;5.30;1.08;;;28.90;91.90;;;;;;5053893;28;20045;-61
2022/08/30 10:02:51;;;;;;;4.72;1.05;;;29.40;91.70;;;;;;5054027;28;20045;-61
2022/08/30 10:05:57;;;;;;;2.83;0.95;;;29.70;91.60;;;;;;5053788;28;20044;-61
2022/08/30 10:08:28;;;;;;;1.25;0.95;;;28.40;91.30;;;;;;5053963;28;20051;-61
2022/08/30 10:11:05;;;;;;;0.90;0.70;;;28.10;92.20;;;;;;5053832;28;20067;-61
2022/08/30 10:13:43;;;;;;;3.38;0.93;;;27.30;91.60;;;;;;5036010;28;20136;-62
2022/08/30 10:16:27;;;;;;;1.58;0.90;;;26.80;91.90;;;;;;5053952;28;20071;-62
2022/08/30 10:19:05;;;;;;;1.00;0.80;;;26.50;91.60;;;;;;5052945;28;20041;-61
2022/08/30 10:21:34;;;;;;;4.23;1.00;;;26.40;92.50;;;;;;5053547;28;20122;-61
2022/08/30 10:24:24;;;;;;;3.42;1.67;;;27.50;92.30;;;;;;5053761;28;20056;-61
2022/08/30 10:26:56;;;;;;;2.35;0.80;;;27.50;92.00;;;;;;5053682;28;20060;-61
2022/08/30 10:29:32;;;;;;;1.30;0.88;;;27.50;91.60;;;;;;5053699;28;20078;-62
2022/08/30 10:32:27;;;;;;;2.58;1.10;;;26.90;91.10;;;;;;5053532;28;20484;-61
2022/08/30 10:35:15;;;;;;;1.90;1.10;;;28.10;91.50;;;;;;4972756;28;20047;-60
2022/08/30 10:37:56;;;;;;;0.90;0.75;;;28.80;91.70;;;;;;4972862;28;20062;-60
2022/08/30 10:43:46;;;;;;;2.25;0.90;;;31.50;90.30;;;;;;4972743;28;20051;-61
2022/08/30 10:46:26;;;;;;;4.47;1.17;;;31.60;88.30;;;;;;4970509;28;20061;-61
2022/08/30 10:48:53;;;;;;;1.50;0.80;;;32.30;89.10;;;;;;4976721;28;20115;-61
2022/08/30 10:51:32;;;;;;;4.45;0.95;;;31.40;88.40;;;;;;4976404;28;20497;-61
2022/08/30 10:54:18;;;;;;;3.95;0.85;;;31.80;88.70;;;;;;4976665;28;20095;-61
2022/08/30 10:56:46;;;;;;;2.78;0.80;;;31.40;88.60;;;;;;4976777;28;20085;-61
2022/08/30 10:59:15;;;;;;;3.20;0.93;;;31.90;88.90;;;;;;4976186;28;20054;-61
2022/08/30 11:01:45;;;;;;;5.18;1.25;;;31.20;87.30;;;;;;4976331;28;20142;-61
2022/08/30 11:04:26;;;;;;;1.77;1.00;;;31.10;87.70;;;;;;4976420;28;20129;-61
2022/08/30 11:07:04;;;;;;;4.78;1.00;;;31.00;87.20;;;;;;4976543;28;20062;-61
2022/08/30 11:09:54;;;;;;;1.90;1.20;;;31.20;87.30;;;;;;4976485;28;20465;-61
2022/08/30 11:12:29;;;;;;;2.67;0.90;;;31.00;86.00;;;;;;5034713;28;20287;-61
2022/08/30 11:14:55;;;;;;;3.90;0.93;;;30.20;88.70;;;;;;5057264;28;20055;-61
2022/08/30 11:17:43;;;;;;;1.55;0.88;;;31.10;88.80;;;;;;5057124;28;20103;-62
2022/08/30 11:20:39;;;;;;;2.13;1.00;;;31.40;87.20;;;;;;5056894;28;20534;-61
2022/08/30 11:23:25;;;;;;;2.92;1.02;;;32.40;87.70;;;;;;5057030;28;20044;-61
2022/08/30 11:25:59;;;;;;;4.90;1.08;;;33.60;86.40;;;;;;5056839;28;20053;-61
2022/08/30 11:28:34;;;;;;;1.23;0.80;;;33.00;87.10;;;;;;5039213;28;20045;-61
2022/08/30 11:31:06;;;;;;;2.90;0.90;;;32.50;84.40;;;;;;5056410;28;20183;-62
2022/08/30 11:33:42;;;;;;;4.30;1.00;;;31.90;85.10;;;;;;5056798;28;20044;-61
2022/08/30 11:36:09;;;;;;;3.13;1.15;;;30.70;85.50;;;;;;5056816;28;20088;-61
2022/08/30 11:38:35;;;;;;;1.25;0.70;;;30.40;86.40;;;;;;5054491;28;20040;-62
2022/08/30 11:41:11;;;;;;;4.32;1.00;;;30.70;86.30;;;;;;5055959;28;20052;-61
2022/08/30 11:43:38;;;;;;;3.72;0.90;;;30.70;85.40;;;;;;5053445;28;20059;-61
2022/08/30 11:46:26;;;;;;;1.83;0.90;;;32.20;86.40;;;;;;5056389;28;20087;-61
2022/08/30 11:49:12;;;;;;;1.63;0.90;;;33.00;83.30;;;;;;5053280;28;20041;-61
2022/08/30 11:51:47;;;;;;;2.63;1.00;;;31.60;83.20;;;;;;5054934;28;20053;-61
2022/08/30 11:54:51;;;;;;;4.30;1.05;;;29.90;84.80;;;;;;5055782;28;20099;-61
2022/08/30 11:57:40;;;;;;;3.13;1.00;;;29.60;86.50;;;;;;5052985;28;20060;-57
2022/08/30 12:00:25;;;;;;;;;;;31.40;87.20;;;;;;5054544;28;20560;-58
2022/08/30 12:02:55;;;;;;;6.72;1.10;;;32.30;85.40;;;;;;5038369;28;19978;-57
2022/08/30 12:05:38;;;;;;;2.40;1.10;;;33.20;84.60;;;;;;5056289;28;20053;-57
2022/08/30 12:08:08;;;;;;;2.65;1.05;;;33.30;85.10;;;;;;5056082;28;20060;-57
2022/08/30 12:10:44;;;;;;;2.45;1.08;;;33.80;83.10;;;;;;5056187;28;20077;-57
2022/08/30 12:13:50;;;;;;;1.35;0.77;;;33.80;82.30;;;;;;5056069;28;20096;-57
2022/08/30 12:19:31;;;;;;;2.00;0.70;;;33.00;81.40;;;;;;5055996;28;20073;-58
2022/08/30 12:22:04;;;;;;;6.37;1.00;;;33.50;82.90;;;;;;5056084;28;20128;-58
2022/08/30 12:24:39;;;;;;;3.58;0.85;;;34.60;82.10;;;;;;5055929;28;20100;-57
2022/08/30 12:27:28;;;;;;;1.65;0.90;;;34.50;80.80;;;;;;5056149;28;20049;-57
2022/08/30 12:30:01;;;;;;;3.20;1.00;;;34.60;80.30;;;;;;5037875;28;20458;-57
2022/08/30 12:32:28;;;;;;;2.95;0.90;;;34.60;81.30;;;;;;5055606;28;20133;-57
2022/08/30 12:34:59;;;;;;;3.75;0.77;;;34.40;80.30;;;;;;5038111;28;20506;-57
2022/08/30 12:37:28;;;;;;;2.05;1.05;;;34.40;80.50;;;;;;5021243;28;20080;-56
2022/08/30 12:40:11;;;;;;;2.28;0.77;;;34.50;81.40;;;;;;5055551;28;20044;-56
2022/08/30 12:42:49;;;;;;;2.60;0.95;;;34.50;79.70;;;;;;5055668;28;20049;-57
2022/08/30 12:45:21;;;;;;;2.58;0.90;;;34.60;81.00;;;;;;5055587;28;20052;-57
2022/08/30 12:48:09;;;;;;;1.48;0.93;;;34.70;80.20;;;;;;5055303;28;20041;-57
2022/08/30 12:50:43;;;;;;;2.92;0.90;;;34.10;79.20;;;;;;5055473;28;20077;-56
2022/08/30 12:53:11;;;;;;;4.18;0.80;;;34.40;80.20;;;;;;5055323;28;20041;-57
2022/08/30 12:55:54;;;;;;;3.22;0.85;;;34.40;80.30;;;;;;5055279;28;20427;-57
2022/08/30 12:58:39;;;;;;;2.67;0.90;;;34.70;80.70;;;;;;5055300;28;20051;-57
2022/08/30 13:01:27;;;;;;;2.70;0.70;;;34.70;81.30;;;;;;5055248;28;20064;-57
2022/08/30 13:04:18;;;;;;;1.55;0.80;;;33.50;80.80;;;;;;5055284;28;20499;-57
2022/08/30 13:06:57;;;;;;;3.72;0.90;;;32.00;81.90;;;;;;5054990;28;20044;-57
2022/08/30 13:09:43;;;;;;;3.40;1.13;;;31.10;83.40;;;;;;5053993;28;20041;-58
2022/08/30 13:12:20;;;;;;;1.75;0.90;;;31.00;85.00;;;;;;5054690;28;20104;-58
2022/08/30 13:14:46;;;;;;;2.10;0.73;;;31.80;84.70;;;;;;5055082;28;20080;-57
2022/08/30 13:17:17;;;;;;;3.67;1.02;;;31.70;84.30;;;;;;5054890;28;20114;-57
2022/08/30 13:19:53;;;;;;;2.55;0.80;;;31.20;84.50;;;;;;5054937;28;20067;-57
2022/08/30 13:22:25;;;;;;;2.35;0.90;;;31.10;85.30;;;;;;5054928;28;20045;-57
2022/08/30 13:24:51;;;;;;;2.50;1.02;;;31.50;84.10;;;;;;5054771;28;20407;-56
2022/08/30 13:27:18;;;;;;;5.93;1.00;;;31.30;85.40;;;;;;5054423;28;20059;-58
2022/08/30 13:29:43;;;;;;;0.80;0.60;;;31.60;84.20;;;;;;5054693;28;20132;-57
2022/08/30 13:32:09;;;;;;;3.83;1.33;;;30.70;84.80;;;;;;5054906;28;20120;-56
2022/08/30 13:34:35;;;;;;;1.73;0.80;;;30.70;86.60;;;;;;5054629;28;20049;-57
2022/08/30 13:37:01;;;;;;;2.85;0.95;;;30.30;86.10;;;;;;5036708;28;20128;-57
2022/08/30 13:39:28;;;;;;;2.45;0.70;;;29.40;85.80;;;;;;5054323;28;20044;-57
2022/08/30 13:41:54;;;;;;;4.25;1.00;;;28.20;86.80;;;;;;5054510;28;20057;-57
2022/08/30 13:44:21;;;;;;;1.73;0.80;;;28.80;87.50;;;;;;5054474;28;20392;-58
2022/08/30 13:46:50;;;;;;;1.85;0.80;;;29.40;88.10;;;;;;5054106;28;20480;-57
2022/08/30 13:49:35;;;;;;;1.45;0.80;;;29.10;87.30;;;;;;5054560;28;20438;-56
2022/08/30 13:52:03;;;;;;;2.40;0.63;;;28.90;87.00;;;;;;5054102;28;20404;-56
2022/08/30 13:54:28;;;;;;;4.60;0.95;;;29.10;88.30;;;;;;5054263;28;20081;-57
2022/08/30 13:56:54;;;;;;;2.63;1.00;;;29.10;89.10;;;;;;5053866;28;20540;-57
2022/08/30 13:59:21;;;;;;;2.80;0.80;;;28.00;87.80;;;;;;5053827;28;20123;-58
2022/08/30 14:01:47;;;;;;;3.35;0.98;;;27.60;90.00;;;;;;5054071;28;20060;-58
2022/08/30 14:04:13;;;;;;;3.72;0.95;;;27.20;90.10;;;;;;5054162;28;20097;-56
2022/08/30 14:06:39;;;;;;;2.63;0.80;;;27.00;90.50;;;;;;5053725;28;20132;-57
2022/08/30 14:09:06;;;;;;;3.28;0.95;;;26.50;90.70;;;;;;5053731;28;20051;-58
2022/08/30 14:11:33;;;;;;;5.07;2.60;;;26.10;90.90;;;;;;5035862;28;20581;-57
2022/08/30 14:13:59;;;;;;;3.17;1.08;;;26.10;91.30;;;;;;5053931;28;20049;-57
2022/08/30 14:16:25;;;;;;;3.22;1.38;;;26.00;91.50;;;;;;5053876;28;20523;-57
2022/08/30 14:18:51;;;;;;;3.13;0.80;;;25.40;91.90;;;;;;5053705;28;20110;-57
2022/08/30 14:21:17;;;;;;;3.28;1.00;;;25.10;92.30;;;;;;5053610;28;20423;-56
2022/08/30 14:23:43;;;;;;;1.67;0.95;;;24.90;92.60;;;;;;5053779;28;20049;-57
2022/08/30 14:26:15;;;;;;;4.40;1.42;;;24.80;92.50;;;;;;5053862;28;20045;-58
2022/08/30 14:28:41;;;;;;;2.25;1.10;;;24.70;92.70;;;;;;5053515;28;20049;-57
2022/08/30 14:31:07;;;;;;;1.95;1.20;;;25.10;93.80;;;;;;5053655;28;20060;-57
2022/08/30 14:33:33;;;;;;;4.05;1.20;;;25.40;94.70;;;;;;5053584;28;20045;-57
2022/08/30 14:35:58;;;;;;;4.35;1.20;;;25.70;94.60;;;;;;5053923;28;20045;-57
2022/08/30 14:38:24;;;;;;;5.97;1.00;;;25.60;94.10;;;;;;5053555;28;20045;-57
2022/08/30 14:40:50;;;;;;;2.72;1.10;;;25.30;93.70;;;;;;5053354;28;20103;-58
2022/08/30 14:43:15;;;;;;;1.80;0.90;;;25.20;94.00;;;;;;5053666;28;20080;-57
2022/08/30 14:45:41;;;;;;;5.05;1.00;;;24.90;93.20;;;;;;5053650;28;20085;-57
2022/08/30 14:48:08;;;;;;;1.85;1.00;;;24.60;93.50;;;;;;5053431;28;20075;-57
2022/08/30 14:50:37;;;;;;;3.45;1.00;;;24.60;93.70;;;;;;5053470;28;20045;-56
2022/08/30 14:53:03;;;;;;;4.75;1.20;;;24.80;94.30;;;;;;5053303;28;20041;-57
2022/08/30 14:55:31;;;;;;;1.65;0.90;;;24.70;94.00;;;;;;5053131;28;20133;-57
2022/08/30 14:57:56;;;;;;;1.92;1.00;;;24.70;94.30;;;;;;5053483;28;20049;-57
2022/08/30 15:00:23;;;;;;;2.08;0.75;;;24.40;94.50;;;;;;5035125;28;20110;-58
2022/08/30 15:02:49;;;;;;;1.52;0.90;;;24.30;93.80;;;;;;5053343;28;20057;-57
2022/08/30 15:05:15;;;;;;;3.00;1.20;;;24.10;93.90;;;;;;5053455;28;20045;-57
2022/08/30 15:07:41;;;;;;;2.20;0.90;;;23.80;94.70;;;;;;5053370;28;20098;-58
2022/08/30 15:10:09;;;;;;;3.42;0.95;;;23.90;95.10;;;;;;5035666;28;20470;-59
2022/08/30 15:12:34;;;;;;;1.27;0.70;;;24.10;95.10;;;;;;5053271;28;20380;-58
2022/08/30 15:15:00;;;;;;;4.40;1.15;;;24.30;95.60;;;;;;5053241;28;20056;-57
2022/08/30 15:17:26;;;;;;;2.55;1.20;;;24.20;94.80;;;;;;5053081;28;20049;-58
2022/08/30 15:19:51;;;;;;;2.42;1.02;;;24.40;95.00;;;;;;5053333;28;20041;-58
2022/08/30 15:22:17;;;;;;;2.05;1.00;;;24.40;94.80;;;;;;5053184;28;20095;-58
2022/08/30 15:24:43;;;;;;;2.40;1.52;;;24.10;95.00;;;;;;5052419;28;20045;-58
2022/08/30 15:27:09;;;;;;;1.38;1.02;;;23.90;95.30;;;;;;5035186;28;20084;-58
2022/08/30 15:29:35;;;;;;;3.20;1.20;;;23.80;95.40;;;;;;5053127;28;20040;-57
2022/08/30 15:32:02;;;;;;;2.47;0.93;;;23.70;95.50;;;;;;5054264;28;20041;-58
2022/08/30 15:34:28;;;;;;;2.58;1.08;;;23.50;96.10;;;;;;5057122;28;20591;-58
2022/08/30 15:36:55;;;;;;;2.63;1.00;;;23.40;96.00;;;;;;5056802;28;20045;-56
2022/08/30 15:39:21;;;;;;;8.50;1.20;;;23.40;96.60;;;;;;5056771;28;20108;-58
2022/08/30 15:41:47;;;;;;;2.50;1.30;;;23.40;96.50;;;;;;5056781;28;20521;-57
2022/08/30 15:44:15;;;;;;;3.75;1.00;;;23.40;97.10;;;;;;5056591;28;20056;-58
2022/08/30 15:46:43;;;;;;;2.90;1.30;;;23.00;96.90;;;;;;5056595;28;20051;-57
2022/08/30 15:49:20;;;;;;;8.23;2.22;;;23.00;97.30;;;;;;5056377;28;20037;-57
2022/08/30 15:51:47;;;;;;;5.10;1.63;;;22.90;97.60;;;;;;5056547;28;20041;-58
2022/08/30 15:54:16;;;;;;;2.47;1.10;;;22.90;97.60;;;;;;5056242;28;20483;-57
2022/08/30 15:56:43;;;;;;;4.40;1.10;;;22.80;97.70;;;;;;5056507;28;20045;-58
2022/08/30 15:59:09;;;;;;;3.08;1.17;;;22.90;97.80;;;;;;5056023;28;20124;-58
2022/08/30 16:01:36;;;;;;;2.75;1.40;;;22.90;97.80;;;;;;5056358;28;20463;-58
2022/08/30 16:04:02;;;;;;;5.50;1.20;;;22.90;97.90;;;;;;5056371;28;20088;-58
2022/08/30 16:06:31;;;;;;;2.88;0.98;;;22.90;98.10;;;;;;5056144;28;20041;-58
2022/08/30 16:08:56;;;;;;;;;;;22.80;98.20;;;;;;5056504;28;20418;-57
2022/08/30 16:11:23;;;;;;;9.88;2.00;;;22.80;98.90;;;;;;5056238;28;19916;-58
2022/08/30 16:13:51;;;;;;;6.75;1.65;;;22.70;98.60;;;;;;5055960;28;20048;-57
2022/08/30 16:16:19;;;;;;;4.72;1.38;;;22.50;99.00;;;;;;5056109;28;20098;-58
2022/08/30 16:18:45;;;;;;;4.87;1.80;;;22.40;99.20;;;;;;5056038;28;20072;-58
2022/08/30 16:21:21;;;;;;;11.65;3.90;;;22.40;99.60;;;;;;5055652;28;20045;-57
2022/08/30 16:23:46;;;;;;;3.38;1.20;;;22.50;99.90;;;;;;5037999;28;20091;-58
2022/08/30 16:26:14;;;;;;;2.75;1.38;;;22.40;99.80;;;;;;5055787;28;20072;-58
2022/08/30 16:28:40;;;;;;;3.30;1.88;;;22.40;99.90;;;;;;5056223;28;20084;-57
2022/08/30 16:31:08;;;;;;;4.93;1.40;;;22.30;99.90;;;;;;5054656;28;20067;-58
2022/08/30 16:33:34;;;;;;;5.22;1.55;;;22.20;99.90;;;;;;5055714;28;20041;-58
2022/08/30 16:36:00;;;;;;;3.20;1.65;;;22.20;99.90;;;;;;5055595;28;20123;-58